Garfield, Ohio
Current Conditions -  °F | °C
As of 12:53 AM on Monday 22 Dec 2014 (Local Time) from KBKL Reporting Station
Clear Clear  
Wind Chill: -4°   Ceiling: Unl
Heat Index: -1°   Visibility: 10mi
Dew Point: -6°   Wind: 6mph
Humidity: 69%   Direction: 140°SE
Pressure: 30.18"   Gusts: NA
Location:  41.4062°N, 81.6149°W
Report Text: KBKL 220553Z 14005KT 10SM CLR M01/M06 A3018 RMK AO2 SLP227 T10111061 10000 21017 58017
Loading
Personal Weather Stations






























Interactive Weather Map New forecast layout! Learn more

10-Day Weather Forecast

Advertisements
Track Severe Weather on mobile